sensor_id;sensor_type;location;lat;lon;timestamp;pressure;altitude;pressure_sealevel;temperature
15607;BMP180;7865;50.918;4.510;2023-03-01T00:03:51;102442.00;;;-1.80
15607;BMP180;7865;50.918;4.510;2023-03-01T00:08:53;102442.00;;;-1.90
15607;BMP180;7865;50.918;4.510;2023-03-01T00:13:57;102440.00;;;-1.90
15607;BMP180;7865;50.918;4.510;2023-03-01T00:18:59;102448.00;;;-2.00
15607;BMP180;7865;50.918;4.510;2023-03-01T00:24:02;102436.00;;;-2.10
15607;BMP180;7865;50.918;4.510;2023-03-01T00:29:04;102427.00;;;-2.30
15607;BMP180;7865;50.918;4.510;2023-03-01T00:34:06;102422.00;;;-2.30
15607;BMP180;7865;50.918;4.510;2023-03-01T00:39:12;102428.00;;;-2.40
15607;BMP180;7865;50.918;4.510;2023-03-01T00:44:14;102424.00;;;-2.50
15607;BMP180;7865;50.918;4.510;2023-03-01T00:49:16;102419.00;;;-2.60
15607;BMP180;7865;50.918;4.510;2023-03-01T00:54:18;102419.00;;;-2.60
15607;BMP180;7865;50.918;4.510;2023-03-01T00:59:21;102425.00;;;-2.70
15607;BMP180;7865;50.918;4.510;2023-03-01T01:04:23;102417.00;;;-2.70
15607;BMP180;7865;50.918;4.510;2023-03-01T01:09:25;102423.00;;;-2.70
15607;BMP180;7865;50.918;4.510;2023-03-01T01:14:27;102416.00;;;-2.80
15607;BMP180;7865;50.918;4.510;2023-03-01T01:19:30;102412.00;;;-2.70
15607;BMP180;7865;50.918;4.510;2023-03-01T01:24:31;102405.00;;;-2.70
15607;BMP180;7865;50.918;4.510;2023-03-01T01:29:33;102401.00;;;-2.70
15607;BMP180;7865;50.918;4.510;2023-03-01T01:34:35;102395.00;;;-2.70
15607;BMP180;7865;50.918;4.510;2023-03-01T01:39:37;102398.00;;;-2.60
15607;BMP180;7865;50.918;4.510;2023-03-01T01:44:40;102396.00;;;-2.60
15607;BMP180;7865;50.918;4.510;2023-03-01T01:49:48;102391.00;;;-2.60
15607;BMP180;7865;50.918;4.510;2023-03-01T01:54:53;102382.00;;;-2.60
15607;BMP180;7865;50.918;4.510;2023-03-01T01:59:58;102366.00;;;-2.60
15607;BMP180;7865;50.918;4.510;2023-03-01T02:05:08;102359.00;;;-2.70
15607;BMP180;7865;50.918;4.510;2023-03-01T02:10:13;102353.00;;;-2.80
15607;BMP180;7865;50.918;4.510;2023-03-01T02:15:15;102358.00;;;-2.90
15607;BMP180;7865;50.918;4.510;2023-03-01T02:20:37;102345.00;;;-3.10
15607;BMP180;7865;50.918;4.510;2023-03-01T02:25:58;102330.00;;;-3.20
15607;BMP180;7865;50.918;4.510;2023-03-01T02:31:04;102328.00;;;-3.20
15607;BMP180;7865;50.918;4.510;2023-03-01T02:36:37;102323.00;;;-3.20
15607;BMP180;7865;50.918;4.510;2023-03-01T02:41:44;102318.00;;;-3.30
15607;BMP180;7865;50.918;4.510;2023-03-01T02:46:52;102312.00;;;-3.30
15607;BMP180;7865;50.918;4.510;2023-03-01T02:52:17;102311.00;;;-3.40
15607;BMP180;7865;50.918;4.510;2023-03-01T02:57:23;102304.00;;;-3.40
15607;BMP180;7865;50.918;4.510;2023-03-01T03:02:29;102308.00;;;-3.40
15607;BMP180;7865;50.918;4.510;2023-03-01T03:08:03;102312.00;;;-3.50
15607;BMP180;7865;50.918;4.510;2023-03-01T03:13:12;102315.00;;;-3.50
15607;BMP180;7865;50.918;4.510;2023-03-01T03:18:16;102308.00;;;-3.50
15607;BMP180;7865;50.918;4.510;2023-03-01T03:23:19;102308.00;;;-3.50
15607;BMP180;7865;50.918;4.510;2023-03-01T03:28:21;102307.00;;;-3.50
15607;BMP180;7865;50.918;4.510;2023-03-01T03:33:24;102305.00;;;-3.40
15607;BMP180;7865;50.918;4.510;2023-03-01T03:38:26;102308.00;;;-3.40
15607;BMP180;7865;50.918;4.510;2023-03-01T03:43:30;102309.00;;;-3.40
15607;BMP180;7865;50.918;4.510;2023-03-01T03:48:38;102307.00;;;-3.20
15607;BMP180;7865;50.918;4.510;2023-03-01T03:53:41;102312.00;;;-3.20
15607;BMP180;7865;50.918;4.510;2023-03-01T03:58:43;102300.00;;;-3.10
15607;BMP180;7865;50.918;4.510;2023-03-01T04:03:45;102294.00;;;-3.20
15607;BMP180;7865;50.918;4.510;2023-03-01T04:08:49;102289.00;;;-3.20
15607;BMP180;7865;50.918;4.510;2023-03-01T04:13:54;102296.00;;;-3.30
15607;BMP180;7865;50.918;4.510;2023-03-01T04:18:57;102290.00;;;-3.40
15607;BMP180;7865;50.918;4.510;2023-03-01T04:24:01;102290.00;;;-3.50
15607;BMP180;7865;50.918;4.510;2023-03-01T04:29:05;102291.00;;;-3.70
15607;BMP180;7865;50.918;4.510;2023-03-01T04:34:07;102284.00;;;-3.70
15607;BMP180;7865;50.918;4.510;2023-03-01T04:39:09;102285.00;;;-3.80
15607;BMP180;7865;50.918;4.510;2023-03-01T04:44:14;102291.00;;;-3.90
15607;BMP180;7865;50.918;4.510;2023-03-01T04:49:15;102281.00;;;-4.00
15607;BMP180;7865;50.918;4.510;2023-03-01T04:54:17;102280.00;;;-3.90
15607;BMP180;7865;50.918;4.510;2023-03-01T04:59:20;102283.00;;;-4.00
15607;BMP180;7865;50.918;4.510;2023-03-01T05:04:24;102266.00;;;-4.00
15607;BMP180;7865;50.918;4.510;2023-03-01T05:09:26;102265.00;;;-4.00
15607;BMP180;7865;50.918;4.510;2023-03-01T05:14:28;102254.00;;;-4.10
15607;BMP180;7865;50.918;4.510;2023-03-01T05:19:31;102256.00;;;-4.10
15607;BMP180;7865;50.918;4.510;2023-03-01T05:24:34;102247.00;;;-4.10
15607;BMP180;7865;50.918;4.510;2023-03-01T05:29:36;102239.00;;;-4.00
15607;BMP180;7865;50.918;4.510;2023-03-01T05:34:41;102248.00;;;-4.10
15607;BMP180;7865;50.918;4.510;2023-03-01T05:39:43;102235.00;;;-4.10
15607;BMP180;7865;50.918;4.510;2023-03-01T05:44:44;102236.00;;;-4.10
15607;BMP180;7865;50.918;4.510;2023-03-01T05:49:46;102234.00;;;-4.20
15607;BMP180;7865;50.918;4.510;2023-03-01T05:54:48;102242.00;;;-4.20
15607;BMP180;7865;50.918;4.510;2023-03-01T05:59:51;102242.00;;;-4.30
15607;BMP180;7865;50.918;4.510;2023-03-01T06:04:53;102241.00;;;-4.30
15607;BMP180;7865;50.918;4.510;2023-03-01T06:09:54;102232.00;;;-4.30
15607;BMP180;7865;50.918;4.510;2023-03-01T06:14:57;102229.00;;;-4.30
15607;BMP180;7865;50.918;4.510;2023-03-01T06:19:58;102234.00;;;-4.40
15607;BMP180;7865;50.918;4.510;2023-03-01T06:25:00;102231.00;;;-4.40
15607;BMP180;7865;50.918;4.510;2023-03-01T06:30:03;102226.00;;;-4.40
15607;BMP180;7865;50.918;4.510;2023-03-01T06:35:05;102219.00;;;-4.40
15607;BMP180;7865;50.918;4.510;2023-03-01T06:40:08;102221.00;;;-4.40
15607;BMP180;7865;50.918;4.510;2023-03-01T06:45:13;102215.00;;;-4.40
15607;BMP180;7865;50.918;4.510;2023-03-01T06:50:16;102223.00;;;-4.40
15607;BMP180;7865;50.918;4.510;2023-03-01T06:55:18;102228.00;;;-4.30
15607;BMP180;7865;50.918;4.510;2023-03-01T07:00:20;102237.00;;;-4.20
15607;BMP180;7865;50.918;4.510;2023-03-01T07:05:23;102239.00;;;-4.00
15607;BMP180;7865;50.918;4.510;2023-03-01T07:10:24;102240.00;;;-3.80
15607;BMP180;7865;50.918;4.510;2023-03-01T07:15:28;102248.00;;;-3.50
15607;BMP180;7865;50.918;4.510;2023-03-01T07:20:30;102245.00;;;-3.20
15607;BMP180;7865;50.918;4.510;2023-03-01T07:25:32;102245.00;;;-2.80
15607;BMP180;7865;50.918;4.510;2023-03-01T07:30:35;102242.00;;;-2.40
15607;BMP180;7865;50.918;4.510;2023-03-01T07:35:37;102230.00;;;-2.00
15607;BMP180;7865;50.918;4.510;2023-03-01T07:40:39;102222.00;;;-1.70
15607;BMP180;7865;50.918;4.510;2023-03-01T07:45:42;102247.00;;;-1.40
15607;BMP180;7865;50.918;4.510;2023-03-01T07:50:44;102235.00;;;-1.10
15607;BMP180;7865;50.918;4.510;2023-03-01T07:55:46;102254.00;;;-0.70
15607;BMP180;7865;50.918;4.510;2023-03-01T08:00:48;102247.00;;;-0.40
15607;BMP180;7865;50.918;4.510;2023-03-01T08:05:50;102244.00;;;-0.10
15607;BMP180;7865;50.918;4.510;2023-03-01T08:10:52;102241.00;;;0.20
15607;BMP180;7865;50.918;4.510;2023-03-01T08:15:53;102244.00;;;0.50
15607;BMP180;7865;50.918;4.510;2023-03-01T08:20:56;102241.00;;;0.80
15607;BMP180;7865;50.918;4.510;2023-03-01T08:26:17;102241.00;;;1.10
15607;BMP180;7865;50.918;4.510;2023-03-01T08:31:26;102250.00;;;1.50
15607;BMP180;7865;50.918;4.510;2023-03-01T08:36:31;102247.00;;;2.20
15607;BMP180;7865;50.918;4.510;2023-03-01T08:41:34;102252.00;;;2.80
15607;BMP180;7865;50.918;4.510;2023-03-01T08:46:40;102237.00;;;3.30
15607;BMP180;7865;50.918;4.510;2023-03-01T08:51:44;102232.00;;;3.70
15607;BMP180;7865;50.918;4.510;2023-03-01T08:56:46;102222.00;;;4.00
15607;BMP180;7865;50.918;4.510;2023-03-01T09:01:49;102226.00;;;4.20
15607;BMP180;7865;50.918;4.510;2023-03-01T09:06:51;102219.00;;;4.50
15607;BMP180;7865;50.918;4.510;2023-03-01T09:11:53;102211.00;;;4.90
15607;BMP180;7865;50.918;4.510;2023-03-01T09:16:54;102207.00;;;5.20
15607;BMP180;7865;50.918;4.510;2023-03-01T09:21:57;102194.00;;;5.50
15607;BMP180;7865;50.918;4.510;2023-03-01T09:27:00;102181.00;;;5.80
15607;BMP180;7865;50.918;4.510;2023-03-01T09:32:02;102188.00;;;5.90
15607;BMP180;7865;50.918;4.510;2023-03-01T09:37:04;102182.00;;;6.00
15607;BMP180;7865;50.918;4.510;2023-03-01T09:42:11;102187.00;;;6.40
15607;BMP180;7865;50.918;4.510;2023-03-01T09:47:20;102155.00;;;6.80
15607;BMP180;7865;50.918;4.510;2023-03-01T10:08:34;102143.00;;;7.40
15607;BMP180;7865;50.918;4.510;2023-03-01T10:13:46;102147.00;;;7.70
15607;BMP180;7865;50.918;4.510;2023-03-01T10:18:58;102134.00;;;7.70
15607;BMP180;7865;50.918;4.510;2023-03-01T10:24:13;102143.00;;;7.80
15607;BMP180;7865;50.918;4.510;2023-03-01T10:29:16;102144.00;;;8.20
15607;BMP180;7865;50.918;4.510;2023-03-01T10:34:20;102133.00;;;8.60
15607;BMP180;7865;50.918;4.510;2023-03-01T10:39:24;102130.00;;;9.10
15607;BMP180;7865;50.918;4.510;2023-03-01T10:44:48;102126.00;;;9.30
15607;BMP180;7865;50.918;4.510;2023-03-01T10:55:03;102117.00;;;9.60
15607;BMP180;7865;50.918;4.510;2023-03-01T11:00:25;102113.00;;;9.60
15607;BMP180;7865;50.918;4.510;2023-03-01T11:05:28;102115.00;;;9.90
15607;BMP180;7865;50.918;4.510;2023-03-01T11:10:34;102108.00;;;9.90
15607;BMP180;7865;50.918;4.510;2023-03-01T11:15:37;102099.00;;;10.20
15607;BMP180;7865;50.918;4.510;2023-03-01T11:20:39;102087.00;;;10.40
15607;BMP180;7865;50.918;4.510;2023-03-01T11:25:51;102086.00;;;10.70
15607;BMP180;7865;50.918;4.510;2023-03-01T11:30:59;102090.00;;;10.70
15607;BMP180;7865;50.918;4.510;2023-03-01T11:41:45;102084.00;;;10.70
15607;BMP180;7865;50.918;4.510;2023-03-01T11:52:30;102073.00;;;10.50
15607;BMP180;7865;50.918;4.510;2023-03-01T12:08:23;102057.00;;;10.40
15607;BMP180;7865;50.918;4.510;2023-03-01T12:19:17;102037.00;;;10.60
15607;BMP180;7865;50.918;4.510;2023-03-01T12:50:46;101998.00;;;11.20
15607;BMP180;7865;50.918;4.510;2023-03-01T12:55:54;101983.00;;;11.40
15607;BMP180;7865;50.918;4.510;2023-03-01T13:01:26;101973.00;;;11.40
15607;BMP180;7865;50.918;4.510;2023-03-01T13:11:58;101931.00;;;11.50
15607;BMP180;7865;50.918;4.510;2023-03-01T13:17:00;101944.00;;;11.50
15607;BMP180;7865;50.918;4.510;2023-03-01T13:22:26;101933.00;;;11.70
15607;BMP180;7865;50.918;4.510;2023-03-01T13:27:29;101937.00;;;11.60
15607;BMP180;7865;50.918;4.510;2023-03-01T13:32:35;101920.00;;;11.60
15607;BMP180;7865;50.918;4.510;2023-03-01T13:37:46;101927.00;;;11.60
15607;BMP180;7865;50.918;4.510;2023-03-01T13:42:58;101916.00;;;11.30
15607;BMP180;7865;50.918;4.510;2023-03-01T13:48:17;101906.00;;;11.70
15607;BMP180;7865;50.918;4.510;2023-03-01T13:53:25;101905.00;;;11.80
15607;BMP180;7865;50.918;4.510;2023-03-01T13:58:30;101899.00;;;12.30
15607;BMP180;7865;50.918;4.510;2023-03-01T14:03:40;101884.00;;;12.30
15607;BMP180;7865;50.918;4.510;2023-03-01T14:08:44;101879.00;;;13.00
15607;BMP180;7865;50.918;4.510;2023-03-01T14:19:27;101872.00;;;13.90
15607;BMP180;7865;50.918;4.510;2023-03-01T14:24:39;101845.00;;;14.40
15607;BMP180;7865;50.918;4.510;2023-03-01T14:29:42;101838.00;;;13.70
15607;BMP180;7865;50.918;4.510;2023-03-01T14:34:46;101812.00;;;13.30
15607;BMP180;7865;50.918;4.510;2023-03-01T14:39:49;101811.00;;;12.70
15607;BMP180;7865;50.918;4.510;2023-03-01T14:44:52;101788.00;;;14.20
15607;BMP180;7865;50.918;4.510;2023-03-01T14:50:02;101794.00;;;13.90
15607;BMP180;7865;50.918;4.510;2023-03-01T14:55:13;101769.00;;;14.00
15607;BMP180;7865;50.918;4.510;2023-03-01T15:00:24;101750.00;;;15.30
15607;BMP180;7865;50.918;4.510;2023-03-01T15:05:31;101751.00;;;15.70
15607;BMP180;7865;50.918;4.510;2023-03-01T15:10:36;101734.00;;;16.60
15607;BMP180;7865;50.918;4.510;2023-03-01T15:15:41;101777.00;;;14.30
15607;BMP180;7865;50.918;4.510;2023-03-01T15:20:45;101779.00;;;14.20
15607;BMP180;7865;50.918;4.510;2023-03-01T15:25:47;101737.00;;;12.70
15607;BMP180;7865;50.918;4.510;2023-03-01T15:31:22;101743.00;;;13.30
15607;BMP180;7865;50.918;4.510;2023-03-01T15:36:33;101773.00;;;14.60
15607;BMP180;7865;50.918;4.510;2023-03-01T15:41:47;101785.00;;;10.40
15607;BMP180;7865;50.918;4.510;2023-03-01T15:46:50;101779.00;;;9.00
15607;BMP180;7865;50.918;4.510;2023-03-01T15:51:54;101775.00;;;8.60
15607;BMP180;7865;50.918;4.510;2023-03-01T15:56:56;101767.00;;;8.10
15607;BMP180;7865;50.918;4.510;2023-03-01T16:01:58;101760.00;;;7.80
15607;BMP180;7865;50.918;4.510;2023-03-01T16:07:00;101772.00;;;7.70
15607;BMP180;7865;50.918;4.510;2023-03-01T16:12:02;101779.00;;;7.30
15607;BMP180;7865;50.918;4.510;2023-03-01T16:17:04;101768.00;;;7.00
15607;BMP180;7865;50.918;4.510;2023-03-01T16:22:09;101767.00;;;6.90
15607;BMP180;7865;50.918;4.510;2023-03-01T16:27:11;101768.00;;;6.70
15607;BMP180;7865;50.918;4.510;2023-03-01T16:32:13;101751.00;;;6.60
15607;BMP180;7865;50.918;4.510;2023-03-01T16:37:16;101759.00;;;6.40
15607;BMP180;7865;50.918;4.510;2023-03-01T16:42:18;101756.00;;;6.30
15607;BMP180;7865;50.918;4.510;2023-03-01T16:47:21;101750.00;;;6.20
15607;BMP180;7865;50.918;4.510;2023-03-01T16:52:23;101758.00;;;6.00
15607;BMP180;7865;50.918;4.510;2023-03-01T16:57:24;101762.00;;;5.80
15607;BMP180;7865;50.918;4.510;2023-03-01T17:02:26;101760.00;;;5.70
15607;BMP180;7865;50.918;4.510;2023-03-01T17:07:33;101763.00;;;5.60
15607;BMP180;7865;50.918;4.510;2023-03-01T17:12:36;101763.00;;;5.40
15607;BMP180;7865;50.918;4.510;2023-03-01T17:17:39;101770.00;;;5.30
15607;BMP180;7865;50.918;4.510;2023-03-01T17:22:41;101765.00;;;5.10
15607;BMP180;7865;50.918;4.510;2023-03-01T17:27:43;101760.00;;;4.90
15607;BMP180;7865;50.918;4.510;2023-03-01T17:32:45;101767.00;;;4.70
15607;BMP180;7865;50.918;4.510;2023-03-01T17:37:47;101784.00;;;4.50
15607;BMP180;7865;50.918;4.510;2023-03-01T17:42:49;101778.00;;;4.40
15607;BMP180;7865;50.918;4.510;2023-03-01T17:47:51;101783.00;;;4.20
15607;BMP180;7865;50.918;4.510;2023-03-01T17:52:53;101785.00;;;3.90
15607;BMP180;7865;50.918;4.510;2023-03-01T17:57:56;101797.00;;;3.70
15607;BMP180;7865;50.918;4.510;2023-03-01T18:02:58;101814.00;;;3.50
15607;BMP180;7865;50.918;4.510;2023-03-01T18:08:00;101806.00;;;3.30
15607;BMP180;7865;50.918;4.510;2023-03-01T18:13:03;101819.00;;;3.20
15607;BMP180;7865;50.918;4.510;2023-03-01T18:18:07;101805.00;;;3.10
15607;BMP180;7865;50.918;4.510;2023-03-01T18:23:09;101808.00;;;3.00
15607;BMP180;7865;50.918;4.510;2023-03-01T18:28:11;101808.00;;;3.00
15607;BMP180;7865;50.918;4.510;2023-03-01T18:33:13;101821.00;;;2.90
15607;BMP180;7865;50.918;4.510;2023-03-01T18:38:15;101806.00;;;2.80
15607;BMP180;7865;50.918;4.510;2023-03-01T18:43:18;101806.00;;;2.80
15607;BMP180;7865;50.918;4.510;2023-03-01T18:48:19;101787.00;;;2.60
15607;BMP180;7865;50.918;4.510;2023-03-01T18:53:22;101794.00;;;2.50
15607;BMP180;7865;50.918;4.510;2023-03-01T18:58:24;101788.00;;;2.50
15607;BMP180;7865;50.918;4.510;2023-03-01T19:03:27;101791.00;;;2.40
15607;BMP180;7865;50.918;4.510;2023-03-01T19:08:30;101780.00;;;2.40
15607;BMP180;7865;50.918;4.510;2023-03-01T19:13:34;101776.00;;;2.30
15607;BMP180;7865;50.918;4.510;2023-03-01T19:18:37;101775.00;;;2.20
15607;BMP180;7865;50.918;4.510;2023-03-01T19:23:42;101769.00;;;2.10
15607;BMP180;7865;50.918;4.510;2023-03-01T19:28:45;101775.00;;;2.10
15607;BMP180;7865;50.918;4.510;2023-03-01T19:33:47;101769.00;;;2.00
15607;BMP180;7865;50.918;4.510;2023-03-01T19:38:50;101776.00;;;2.00
15607;BMP180;7865;50.918;4.510;2023-03-01T19:43:53;101769.00;;;1.90
15607;BMP180;7865;50.918;4.510;2023-03-01T19:48:55;101771.00;;;1.80
15607;BMP180;7865;50.918;4.510;2023-03-01T19:53:57;101762.00;;;1.70
15607;BMP180;7865;50.918;4.510;2023-03-01T19:58:59;101773.00;;;1.70
15607;BMP180;7865;50.918;4.510;2023-03-01T20:04:05;101757.00;;;1.70
15607;BMP180;7865;50.918;4.510;2023-03-01T20:09:07;101754.00;;;1.60
15607;BMP180;7865;50.918;4.510;2023-03-01T20:14:22;101755.00;;;1.50
15607;BMP180;7865;50.918;4.510;2023-03-01T20:19:25;101762.00;;;1.40
15607;BMP180;7865;50.918;4.510;2023-03-01T20:24:26;101771.00;;;1.40
15607;BMP180;7865;50.918;4.510;2023-03-01T20:29:28;101769.00;;;1.40
15607;BMP180;7865;50.918;4.510;2023-03-01T20:34:31;101772.00;;;1.20
15607;BMP180;7865;50.918;4.510;2023-03-01T20:39:35;101765.00;;;1.10
15607;BMP180;7865;50.918;4.510;2023-03-01T20:44:37;101774.00;;;0.90
15607;BMP180;7865;50.918;4.510;2023-03-01T20:49:43;101781.00;;;0.70
15607;BMP180;7865;50.918;4.510;2023-03-01T20:54:45;101770.00;;;0.50
15607;BMP180;7865;50.918;4.510;2023-03-01T20:59:47;101773.00;;;0.40
15607;BMP180;7865;50.918;4.510;2023-03-01T21:04:49;101760.00;;;0.30
15607;BMP180;7865;50.918;4.510;2023-03-01T21:09:51;101760.00;;;0.10
15607;BMP180;7865;50.918;4.510;2023-03-01T21:14:53;101756.00;;;0.00
15607;BMP180;7865;50.918;4.510;2023-03-01T21:19:55;101753.00;;;0.00
15607;BMP180;7865;50.918;4.510;2023-03-01T21:24:57;101745.00;;;0.00
15607;BMP180;7865;50.918;4.510;2023-03-01T21:29:59;101749.00;;;0.00
15607;BMP180;7865;50.918;4.510;2023-03-01T21:35:01;101738.00;;;-0.20
15607;BMP180;7865;50.918;4.510;2023-03-01T21:40:04;101736.00;;;-0.30
15607;BMP180;7865;50.918;4.510;2023-03-01T21:45:09;101738.00;;;-0.40
15607;BMP180;7865;50.918;4.510;2023-03-01T21:50:12;101729.00;;;-0.50
15607;BMP180;7865;50.918;4.510;2023-03-01T21:55:14;101733.00;;;-0.60
15607;BMP180;7865;50.918;4.510;2023-03-01T22:00:16;101731.00;;;-0.70
15607;BMP180;7865;50.918;4.510;2023-03-01T22:05:18;101732.00;;;-0.80
15607;BMP180;7865;50.918;4.510;2023-03-01T22:10:20;101735.00;;;-0.90
15607;BMP180;7865;50.918;4.510;2023-03-01T22:15:28;101743.00;;;-1.00
15607;BMP180;7865;50.918;4.510;2023-03-01T22:20:30;101743.00;;;-1.10
15607;BMP180;7865;50.918;4.510;2023-03-01T22:25:32;101751.00;;;-1.10
15607;BMP180;7865;50.918;4.510;2023-03-01T22:30:37;101751.00;;;-1.20
15607;BMP180;7865;50.918;4.510;2023-03-01T22:35:40;101745.00;;;-1.30
15607;BMP180;7865;50.918;4.510;2023-03-01T22:40:42;101751.00;;;-1.40
15607;BMP180;7865;50.918;4.510;2023-03-01T22:45:44;101745.00;;;-1.50
15607;BMP180;7865;50.918;4.510;2023-03-01T22:50:47;101750.00;;;-1.60
15607;BMP180;7865;50.918;4.510;2023-03-01T22:55:49;101757.00;;;-1.60
15607;BMP180;7865;50.918;4.510;2023-03-01T23:00:51;101754.00;;;-1.60
15607;BMP180;7865;50.918;4.510;2023-03-01T23:05:53;101756.00;;;-1.60
15607;BMP180;7865;50.918;4.510;2023-03-01T23:10:55;101752.00;;;-1.70
15607;BMP180;7865;50.918;4.510;2023-03-01T23:15:57;101749.00;;;-1.70
15607;BMP180;7865;50.918;4.510;2023-03-01T23:20:59;101752.00;;;-1.80
15607;BMP180;7865;50.918;4.510;2023-03-01T23:26:02;101750.00;;;-1.80
15607;BMP180;7865;50.918;4.510;2023-03-01T23:31:06;101755.00;;;-1.70
15607;BMP180;7865;50.918;4.510;2023-03-01T23:41:23;101761.00;;;-1.70
15607;BMP180;7865;50.918;4.510;2023-03-01T23:46:28;101746.00;;;-1.80
15607;BMP180;7865;50.918;4.510;2023-03-01T23:51:31;101746.00;;;-1.80
15607;BMP180;7865;50.918;4.510;2023-03-01T23:56:39;101745.00;;;-1.90
